Time;durP1;ratioP1;P1;durP2;ratioP2;P2;SDS_P1;SDS_P2;PMS_P1;PMS_P2;Temp;Humidity;BMP_temperature;BMP_pressure;BME280_temperature;BME280_humidity;BME280_pressure;Samples;Min_cycle;Max_cycle;Signal;HPM_P1;HPM_P2
2022/01/07 00:02:00;;;;;;;1.10;1.00;;;1.80;99.90;;;;;;4952380;28;20485;-85
2022/01/07 00:04:25;;;;;;;1.07;0.97;;;1.80;99.90;;;;;;4952111;28;20478;-86
2022/01/07 00:06:51;;;;;;;1.00;0.90;;;1.80;99.90;;;;;;4951657;28;20866;-86
2022/01/07 00:09:18;;;;;;;1.00;0.90;;;1.70;99.90;;;;;;4952987;28;20187;-84
2022/01/07 00:11:43;;;;;;;1.00;0.90;;;1.80;99.90;;;;;;4951094;28;21204;-85
2022/01/07 00:14:09;;;;;;;2.40;2.30;;;1.70;99.90;;;;;;4951815;28;20541;-85
2022/01/07 00:16:35;;;;;;;0.80;0.70;;;1.70;99.90;;;;;;4951586;28;20195;-85
2022/01/07 00:19:00;;;;;;;1.00;0.90;;;1.70;99.90;;;;;;4954597;28;20195;-85
2022/01/07 00:21:26;;;;;;;0.80;0.80;;;1.70;99.90;;;;;;4953909;28;20194;-85
2022/01/07 00:23:51;;;;;;;0.93;0.83;;;1.70;99.90;;;;;;4935004;29;20543;-85
2022/01/07 00:26:28;;;;;;;1.63;1.30;;;1.70;99.90;;;;;;4934743;28;20217;-86
2022/01/07 00:28:53;;;;;;;1.10;1.00;;;1.80;99.90;;;;;;4951033;28;20305;-85
2022/01/07 00:31:19;;;;;;;1.00;0.90;;;1.70;99.90;;;;;;4952599;28;20566;-85
2022/01/07 00:33:44;;;;;;;0.90;0.87;;;1.80;99.90;;;;;;4935534;29;20206;-85
2022/01/07 00:36:10;;;;;;;1.43;1.33;;;1.70;99.90;;;;;;4951036;28;20202;-85
2022/01/07 00:38:36;;;;;;;1.50;1.40;;;1.80;99.90;;;;;;4935435;29;20265;-86
2022/01/07 00:41:03;;;;;;;1.00;0.90;;;1.80;99.90;;;;;;4951073;28;20285;-85
2022/01/07 00:43:29;;;;;;;1.40;1.30;;;1.80;99.90;;;;;;4950618;28;20194;-86
2022/01/07 00:45:55;;;;;;;1.40;1.30;;;1.80;99.90;;;;;;4951260;28;20442;-85
2022/01/07 00:48:24;;;;;;;1.00;0.90;;;1.70;99.90;;;;;;4948711;28;20269;-86
2022/01/07 00:50:49;;;;;;;1.60;1.50;;;1.70;99.90;;;;;;4934342;29;20450;-86
2022/01/07 00:53:15;;;;;;;3.73;3.53;;;1.80;99.90;;;;;;4932965;29;20540;-85
2022/01/07 00:55:41;;;;;;;0.80;0.80;;;1.80;99.90;;;;;;4951623;28;20231;-85
2022/01/07 00:58:07;;;;;;;1.30;1.20;;;1.80;99.90;;;;;;4933739;29;20878;-85
2022/01/07 01:00:33;;;;;;;1.60;1.20;;;1.80;99.90;;;;;;4950637;28;20431;-85
2022/01/07 01:02:59;;;;;;;2.23;2.13;;;1.80;99.90;;;;;;4955978;28;20450;-85
2022/01/07 01:05:26;;;;;;;3.10;2.00;;;1.80;99.90;;;;;;4964157;28;20429;-85
2022/01/07 01:07:52;;;;;;;0.90;0.90;;;1.80;99.90;;;;;;4934354;29;20191;-85
2022/01/07 01:10:20;;;;;;;1.40;1.30;;;1.80;99.90;;;;;;4935070;28;20604;-85
2022/01/07 01:12:47;;;;;;;2.17;1.97;;;1.80;99.90;;;;;;4934818;29;20246;-86
2022/01/07 01:15:15;;;;;;;1.30;1.00;;;1.80;99.90;;;;;;4951692;28;20446;-85
2022/01/07 01:17:41;;;;;;;0.90;0.90;;;1.80;99.90;;;;;;4940762;28;20449;-86
2022/01/07 01:20:09;;;;;;;0.87;0.83;;;1.80;99.90;;;;;;4933727;29;20810;-86
2022/01/07 01:22:34;;;;;;;0.87;0.87;;;1.80;99.90;;;;;;4925042;28;20194;-86
2022/01/07 01:25:00;;;;;;;1.37;1.27;;;1.80;99.90;;;;;;4950747;28;20460;-85
2022/01/07 01:27:33;;;;;;;2.50;1.70;;;1.80;99.90;;;;;;4956557;28;20186;-86
2022/01/07 01:30:00;;;;;;;1.03;0.97;;;1.80;99.90;;;;;;4951391;28;20237;-86
2022/01/07 01:32:26;;;;;;;0.90;0.90;;;1.80;99.90;;;;;;4933981;28;20748;-86
2022/01/07 01:34:51;;;;;;;1.00;1.00;;;1.80;99.90;;;;;;4933469;29;20453;-86
2022/01/07 01:37:17;;;;;;;2.03;1.93;;;1.80;99.90;;;;;;4950863;28;20251;-86
2022/01/07 01:39:42;;;;;;;0.80;0.80;;;1.80;99.90;;;;;;4950354;28;20202;-86
2022/01/07 01:42:08;;;;;;;0.80;0.73;;;1.80;99.90;;;;;;4951372;28;20205;-86
2022/01/07 01:44:34;;;;;;;0.80;0.80;;;1.90;99.90;;;;;;4950357;28;20837;-85
2022/01/07 01:46:59;;;;;;;0.90;0.90;;;1.80;99.90;;;;;;4933125;29;20195;-86
2022/01/07 01:49:25;;;;;;;1.30;1.20;;;1.90;99.90;;;;;;4949661;28;20186;-85
2022/01/07 01:51:50;;;;;;;0.90;0.90;;;1.80;99.90;;;;;;4936997;28;20226;-85
2022/01/07 01:54:16;;;;;;;1.50;1.40;;;1.80;99.90;;;;;;4950449;28;20517;-85
2022/01/07 01:56:45;;;;;;;0.83;0.83;;;1.90;99.90;;;;;;4927126;28;20525;-85
2022/01/07 01:59:10;;;;;;;0.97;0.90;;;1.80;99.90;;;;;;4933038;29;20194;-84
2022/01/07 02:01:36;;;;;;;0.90;0.90;;;1.80;99.90;;;;;;4921360;29;20527;-86
2022/01/07 02:04:02;;;;;;;0.80;0.80;;;1.80;99.90;;;;;;4950129;28;20286;-86
2022/01/07 02:06:29;;;;;;;1.63;1.53;;;1.80;99.90;;;;;;4932720;29;20481;-85
2022/01/07 02:08:54;;;;;;;0.80;0.77;;;1.80;99.90;;;;;;4932480;28;20817;-85
2022/01/07 02:11:20;;;;;;;1.83;1.73;;;1.90;99.90;;;;;;4950346;28;20469;-85
2022/01/07 02:13:48;;;;;;;1.33;1.23;;;1.80;99.90;;;;;;4953248;28;20214;-85
2022/01/07 02:16:14;;;;;;;2.00;1.20;;;1.80;99.90;;;;;;4933611;29;20662;-85
2022/01/07 02:18:42;;;;;;;2.70;2.60;;;1.80;99.90;;;;;;4933027;29;20590;-85
2022/01/07 02:21:08;;;;;;;1.30;1.20;;;1.80;99.90;;;;;;4949806;28;20469;-86
2022/01/07 02:23:36;;;;;;;0.90;0.90;;;1.80;99.90;;;;;;4932883;29;21029;-86
2022/01/07 02:26:28;;;;;;;0.90;0.90;;;1.80;99.90;;;;;;4950660;28;20186;-86
2022/01/07 02:28:53;;;;;;;3.40;3.30;;;1.90;99.90;;;;;;4938001;28;20477;-85
2022/01/07 02:31:19;;;;;;;1.13;1.07;;;1.80;99.90;;;;;;4953239;28;20446;-85
2022/01/07 02:33:45;;;;;;;0.80;0.70;;;1.80;99.90;;;;;;4938672;29;20206;-86
2022/01/07 02:36:12;;;;;;;0.80;0.80;;;1.80;99.90;;;;;;4952121;28;20187;-85
2022/01/07 02:38:38;;;;;;;5.70;2.73;;;1.80;99.90;;;;;;4922170;29;20191;-85
2022/01/07 02:41:09;;;;;;;3.70;1.60;;;1.80;99.90;;;;;;4947573;28;20442;-86
2022/01/07 02:43:35;;;;;;;0.90;0.90;;;1.80;99.90;;;;;;4924356;29;20187;-87
2022/01/07 02:46:00;;;;;;;0.90;0.90;;;1.80;99.90;;;;;;4953219;28;20433;-85
2022/01/07 02:48:26;;;;;;;0.90;0.90;;;1.80;99.90;;;;;;4940952;28;20579;-86
2022/01/07 02:50:51;;;;;;;1.73;1.63;;;1.80;99.90;;;;;;4950901;28;20279;-86
2022/01/07 02:53:17;;;;;;;1.30;1.20;;;1.80;99.90;;;;;;4952615;28;20225;-86
2022/01/07 02:55:43;;;;;;;1.60;1.50;;;1.80;99.90;;;;;;4951817;28;20717;-86
2022/01/07 02:58:09;;;;;;;1.57;1.47;;;1.80;99.90;;;;;;4957178;28;20201;-86
2022/01/07 03:00:35;;;;;;;0.90;0.90;;;1.80;99.90;;;;;;4950023;28;20659;-86
2022/01/07 03:03:02;;;;;;;1.33;1.23;;;1.90;99.90;;;;;;4934121;29;20454;-86
2022/01/07 03:05:28;;;;;;;0.80;0.70;;;1.90;99.90;;;;;;4952696;28;20935;-85
2022/01/07 03:07:54;;;;;;;1.57;1.47;;;1.80;99.90;;;;;;4929339;29;20494;-85
2022/01/07 03:10:25;;;;;;;2.50;1.33;;;1.80;99.90;;;;;;4936077;28;20186;-85
2022/01/07 03:12:51;;;;;;;0.80;0.80;;;1.80;99.90;;;;;;4951522;28;20488;-86
2022/01/07 03:15:17;;;;;;;0.90;0.90;;;1.90;99.90;;;;;;4949090;28;20521;-86
2022/01/07 03:17:43;;;;;;;1.30;1.20;;;1.90;99.90;;;;;;4939024;28;20533;-86
2022/01/07 03:20:11;;;;;;;1.20;1.10;;;1.90;99.90;;;;;;4959499;28;20560;-85
2022/01/07 03:22:37;;;;;;;0.83;0.80;;;1.90;99.90;;;;;;4952145;28;20183;-86
2022/01/07 03:25:04;;;;;;;2.20;2.10;;;1.90;99.90;;;;;;4949654;28;20807;-85
2022/01/07 03:27:29;;;;;;;0.80;0.80;;;1.90;99.90;;;;;;4952678;28;20190;-85
2022/01/07 03:30:56;;;;;;;0.80;0.70;;;1.90;99.90;;;;;;5085500;27;21176;-85
2022/01/07 03:33:25;;;;;;;0.80;0.70;;;1.90;99.90;;;;;;5069746;28;20816;-86
2022/01/07 03:35:50;;;;;;;2.07;1.97;;;1.90;99.90;;;;;;5066579;28;20939;-86
2022/01/07 03:38:16;;;;;;;0.80;0.80;;;1.90;99.90;;;;;;5067093;28;20502;-85
2022/01/07 03:40:41;;;;;;;1.20;1.10;;;1.80;99.90;;;;;;5065563;28;20234;-86
2022/01/07 03:43:07;;;;;;;1.87;1.77;;;1.90;99.90;;;;;;5066749;28;20186;-86
2022/01/07 03:45:33;;;;;;;1.00;0.90;;;1.80;99.90;;;;;;5075600;28;20195;-85
2022/01/07 03:47:59;;;;;;;1.43;1.33;;;1.80;99.90;;;;;;5069148;28;20194;-85
2022/01/07 03:50:26;;;;;;;0.93;0.90;;;1.80;99.90;;;;;;5071071;28;20244;-86
2022/01/07 03:52:53;;;;;;;0.80;0.80;;;1.80;99.90;;;;;;5069860;28;20205;-85
2022/01/07 03:55:23;;;;;;;2.90;1.77;;;1.80;99.90;;;;;;5066917;28;20444;-86
2022/01/07 03:57:49;;;;;;;1.00;0.90;;;1.80;99.90;;;;;;5066186;28;20444;-85
2022/01/07 04:00:18;;;;;;;1.13;1.07;;;1.70;99.90;;;;;;5068009;28;20432;-86
2022/01/07 04:02:45;;;;;;;0.80;0.77;;;1.70;99.90;;;;;;5066875;28;20197;-86
2022/01/07 04:05:11;;;;;;;0.97;0.90;;;1.70;99.90;;;;;;5067477;28;20460;-85
2022/01/07 04:08:02;;;;;;;;;;;;;;;;;;;;;
2022/01/07 04:10:31;;;;;;;0.80;0.80;;;1.60;99.90;;;;;;5057470;28;20490;-86
2022/01/07 04:13:39;;;;;;;2.73;2.50;;;1.60;99.90;;;;;;5066182;28;20494;-86
2022/01/07 04:16:14;;;;;;;1.83;1.73;;;1.60;99.90;;;;;;5064283;28;20494;-86
2022/01/07 04:18:40;;;;;;;0.90;0.90;;;1.50;99.90;;;;;;5057690;28;20447;-86
2022/01/07 04:21:05;;;;;;;0.80;0.80;;;1.50;99.90;;;;;;5081496;28;20441;-86
2022/01/07 04:26:24;;;;;;;0.90;0.90;;;1.50;99.90;;;;;;5067635;28;20198;-85
2022/01/07 04:28:49;;;;;;;0.80;0.80;;;1.40;99.90;;;;;;5066000;28;20488;-85
2022/01/07 04:34:43;;;;;;;0.73;0.73;;;1.40;99.90;;;;;;5062719;28;20228;-85
2022/01/07 04:37:09;;;;;;;0.73;0.70;;;1.40;99.90;;;;;;5065797;28;20429;-85
2022/01/07 04:39:34;;;;;;;1.73;1.63;;;1.40;99.90;;;;;;5064323;28;20763;-85
2022/01/07 04:48:06;;;;;;;1.00;1.00;;;1.40;99.90;;;;;;5014045;28;20471;-85
2022/01/07 04:50:44;;;;;;;;;;;;;;;;;;;;;
2022/01/07 04:53:10;;;;;;;0.90;0.90;;;1.30;99.90;;;;;;5052019;28;20171;-85
2022/01/07 04:55:37;;;;;;;1.00;1.00;;;1.30;99.90;;;;;;5051629;28;21022;-85
2022/01/07 05:04:23;;;;;;;1.40;1.30;;;1.30;99.90;;;;;;5051681;28;20436;-85
2022/01/07 05:06:49;;;;;;;1.63;1.57;;;1.30;99.90;;;;;;5049758;28;20815;-85
2022/01/07 05:09:36;;;;;;;1.67;1.43;;;1.30;99.90;;;;;;5050304;28;20207;-85
2022/01/07 05:12:03;;;;;;;1.93;1.53;;;1.30;99.90;;;;;;5059997;28;20193;-85
2022/01/07 05:14:28;;;;;;;0.83;0.83;;;1.30;99.90;;;;;;5050299;28;20508;-84
2022/01/07 05:16:54;;;;;;;1.40;1.30;;;1.20;99.90;;;;;;5051675;28;20461;-84
2022/01/07 05:19:19;;;;;;;0.70;0.70;;;1.20;99.90;;;;;;5051894;28;20225;-84
2022/01/07 05:21:55;;;;;;;;;;;;;;;;;;;;;
2022/01/07 05:25:08;;;;;;;0.80;0.80;;;1.30;99.90;;;;;;5050383;28;20647;-84
2022/01/07 05:27:36;;;;;;;1.07;1.07;;;1.20;99.90;;;;;;5076666;28;20536;-84
2022/01/07 05:30:10;;;;;;;0.90;0.90;;;1.30;99.90;;;;;;5053641;28;20492;-83
2022/01/07 05:32:36;;;;;;;0.90;0.90;;;1.30;99.90;;;;;;5042139;28;20801;-84
2022/01/07 05:35:08;;;;;;;0.80;0.80;;;1.30;99.90;;;;;;5054967;28;20437;-83
2022/01/07 05:41:21;;;;;;;;;;;;;;;;;;;;;
2022/01/07 05:43:57;;;;;;;;;;;;;;;;;;;;;
2022/01/07 05:46:34;;;;;;;0.80;0.73;;;1.30;99.90;;;;;;5050761;28;20464;-83
2022/01/07 05:49:00;;;;;;;0.80;0.80;;;1.30;99.90;;;;;;5046176;28;20479;-83
2022/01/07 05:51:35;;;;;;;1.50;1.40;;;1.30;99.90;;;;;;5050972;28;20421;-83
2022/01/07 05:54:03;;;;;;;0.80;0.80;;;1.30;99.90;;;;;;5048181;28;20240;-83
2022/01/07 05:56:31;;;;;;;0.70;0.70;;;1.30;99.90;;;;;;5050976;28;20417;-83
2022/01/07 05:58:57;;;;;;;0.80;0.80;;;1.30;99.90;;;;;;5049046;28;20472;-83
2022/01/07 06:01:22;;;;;;;0.80;0.80;;;1.30;99.90;;;;;;5066004;28;20948;-82
2022/01/07 06:04:39;;;;;;;0.90;0.90;;;1.30;99.90;;;;;;5050735;28;20190;-83
2022/01/07 06:10:18;;;;;;;6.37;2.10;;;1.30;99.90;;;;;;4995228;28;20479;-83
2022/01/07 06:12:43;;;;;;;0.70;0.70;;;1.20;99.90;;;;;;5007440;28;20435;-83
2022/01/07 06:15:14;;;;;;;1.17;1.07;;;1.30;99.90;;;;;;5049212;28;20210;-83
2022/01/07 06:17:53;;;;;;;0.80;0.80;;;1.30;99.90;;;;;;5044564;28;20211;-83
2022/01/07 06:21:08;;;;;;;1.83;1.73;;;1.30;99.90;;;;;;5047358;28;20445;-83
2022/01/07 06:23:54;;;;;;;0.90;0.90;;;1.20;99.90;;;;;;5042823;28;20441;-83
2022/01/07 06:26:59;;;;;;;9.10;1.23;;;1.20;99.90;;;;;;5021348;28;20518;-84
2022/01/07 06:29:38;;;;;;;0.90;0.87;;;1.20;99.90;;;;;;5037932;28;20493;-84
2022/01/07 06:32:15;;;;;;;;;;;;;;;;;;;;;
2022/01/07 06:34:41;;;;;;;0.83;0.83;;;1.20;99.90;;;;;;5023196;28;20491;-83
2022/01/07 06:37:06;;;;;;;0.80;0.80;;;1.20;99.90;;;;;;5028879;28;20428;-84
2022/01/07 06:39:32;;;;;;;0.90;0.90;;;1.20;99.90;;;;;;5026438;28;20873;-84
2022/01/07 06:41:59;;;;;;;0.80;0.80;;;1.20;99.90;;;;;;5029731;28;20875;-84
2022/01/07 06:44:26;;;;;;;0.70;0.70;;;1.20;99.90;;;;;;5027752;28;20446;-84
2022/01/07 06:46:52;;;;;;;0.90;0.90;;;1.20;99.90;;;;;;5027370;28;20544;-84
2022/01/07 06:49:18;;;;;;;0.80;0.80;;;1.20;99.90;;;;;;5023201;28;20516;-84
2022/01/07 06:51:44;;;;;;;0.70;0.70;;;1.20;99.90;;;;;;5024573;28;20461;-84
2022/01/07 06:54:31;;;;;;;0.80;0.80;;;1.20;99.90;;;;;;5027893;28;20430;-84
2022/01/07 06:56:57;;;;;;;0.87;0.87;;;1.30;99.90;;;;;;5028141;28;20180;-84
2022/01/07 06:59:26;;;;;;;0.90;0.90;;;1.30;99.90;;;;;;5019912;28;20794;-84
2022/01/07 07:01:51;;;;;;;0.90;0.90;;;1.30;99.90;;;;;;5015816;28;20953;-83
2022/01/07 07:05:04;;;;;;;0.70;0.70;;;1.30;99.90;;;;;;5023022;28;20470;-84
2022/01/07 07:08:02;;;;;;;1.30;1.23;;;1.30;99.90;;;;;;5015094;28;20197;-83
2022/01/07 07:10:27;;;;;;;0.80;0.80;;;1.30;99.90;;;;;;5027655;28;20478;-84
2022/01/07 07:12:53;;;;;;;1.30;1.20;;;1.30;99.90;;;;;;5045781;28;20450;-84
2022/01/07 07:15:19;;;;;;;0.80;0.80;;;1.30;99.90;;;;;;5027317;28;20706;-83
2022/01/07 07:18:05;;;;;;;0.73;0.70;;;1.30;99.90;;;;;;5027405;28;20245;-84
2022/01/07 07:20:31;;;;;;;0.70;0.70;;;1.30;99.90;;;;;;5028317;28;20576;-83
2022/01/07 07:23:32;;;;;;;2.43;2.23;;;1.30;99.90;;;;;;5028804;28;20527;-84
2022/01/07 07:25:57;;;;;;;1.37;1.27;;;1.30;99.90;;;;;;5021813;28;20440;-84
2022/01/07 07:28:26;;;;;;;1.30;1.20;;;1.30;99.90;;;;;;5033121;28;20808;-84
2022/01/07 07:30:55;;;;;;;2.10;2.00;;;1.30;99.90;;;;;;5029908;28;20281;-83
2022/01/07 07:39:05;;;;;;;1.20;1.13;;;1.50;99.90;;;;;;5019710;28;20437;-82
2022/01/07 07:42:02;;;;;;;0.70;0.70;;;1.50;99.90;;;;;;5022589;28;20468;-82
2022/01/07 07:44:27;;;;;;;0.80;0.80;;;1.40;99.90;;;;;;5060785;28;20477;-84
2022/01/07 07:46:57;;;;;;;0.80;0.80;;;1.40;99.90;;;;;;5024586;28;20434;-83
2022/01/07 07:49:45;;;;;;;0.80;0.80;;;1.40;99.90;;;;;;5023342;28;20371;-83
2022/01/07 07:52:11;;;;;;;2.17;1.87;;;1.40;99.90;;;;;;5027205;28;20442;-84
2022/01/07 07:54:46;;;;;;;2.30;2.20;;;1.40;99.90;;;;;;5034508;28;20434;-83
2022/01/07 07:58:03;;;;;;;;;;;;;;;;;;;;;
2022/01/07 08:00:23;;;;;;;0.90;0.90;;;1.30;99.90;;;;;;5021596;28;20786;-82
2022/01/07 08:03:21;;;;;;;1.77;1.67;;;1.40;99.90;;;;;;5024150;28;20432;-83
2022/01/07 08:06:49;;;;;;;;;;;;;;;;;;;;;
2022/01/07 08:09:27;;;;;;;0.80;0.80;;;1.40;99.90;;;;;;4982046;28;21056;-82
2022/01/07 08:17:44;;;;;;;0.80;0.80;;;1.40;99.90;;;;;;4975817;28;20474;-83
2022/01/07 08:20:09;;;;;;;1.10;1.10;;;1.40;99.90;;;;;;5049564;28;20473;-82
2022/01/07 08:22:35;;;;;;;0.80;0.70;;;1.40;99.90;;;;;;5026975;28;20935;-83
2022/01/07 08:25:02;;;;;;;0.70;0.63;;;1.40;99.90;;;;;;5030046;28;20195;-83
2022/01/07 08:27:28;;;;;;;3.60;3.47;;;1.40;99.90;;;;;;5030325;28;20202;-83
2022/01/07 08:29:53;;;;;;;0.90;0.90;;;1.40;99.90;;;;;;5031157;28;20486;-83
2022/01/07 08:35:21;;;;;;;0.80;0.80;;;1.40;99.90;;;;;;5031303;28;20237;-83
2022/01/07 08:37:47;;;;;;;1.23;1.13;;;1.40;99.90;;;;;;5027219;28;20470;-82
2022/01/07 08:40:12;;;;;;;1.60;1.50;;;1.40;99.90;;;;;;5024964;28;20199;-83
2022/01/07 08:42:38;;;;;;;1.47;1.37;;;1.40;99.90;;;;;;5026296;28;20180;-82
2022/01/07 08:45:04;;;;;;;0.90;0.90;;;1.40;99.90;;;;;;5025733;28;20191;-82
2022/01/07 08:47:38;;;;;;;0.70;0.70;;;1.40;99.90;;;;;;5032641;28;20723;-83
2022/01/07 08:50:04;;;;;;;1.90;1.50;;;1.40;99.90;;;;;;5034567;28;20488;-82
2022/01/07 08:52:30;;;;;;;0.80;0.80;;;1.40;99.90;;;;;;5029119;28;20516;-82
2022/01/07 08:54:56;;;;;;;0.80;0.73;;;1.40;99.90;;;;;;5028791;28;20548;-86
2022/01/07 08:57:21;;;;;;;0.70;0.60;;;1.40;99.90;;;;;;5031632;28;20175;-87
2022/01/07 09:00:02;;;;;;;0.80;0.80;;;1.40;99.90;;;;;;5033147;28;20375;-89
2022/01/07 09:02:27;;;;;;;1.00;1.00;;;1.40;99.90;;;;;;5030022;28;20230;-88
2022/01/07 09:04:54;;;;;;;0.70;0.70;;;1.40;99.90;;;;;;5034993;28;20489;-86
2022/01/07 09:07:19;;;;;;;0.90;0.90;;;1.40;99.90;;;;;;5033579;28;20219;-89
2022/01/07 09:09:44;;;;;;;0.70;0.70;;;1.40;99.90;;;;;;5030899;28;20881;-85
2022/01/07 09:12:10;;;;;;;1.00;1.00;;;1.40;99.90;;;;;;5023980;28;20202;-84
2022/01/07 09:14:38;;;;;;;2.10;1.63;;;1.40;99.90;;;;;;5043617;28;20179;-84
2022/01/07 09:17:04;;;;;;;1.00;1.00;;;1.40;99.90;;;;;;5026417;28;20199;-84
2022/01/07 09:19:30;;;;;;;1.63;1.53;;;1.40;99.90;;;;;;5029444;28;20434;-89
2022/01/07 09:21:56;;;;;;;0.80;0.80;;;1.40;99.90;;;;;;5035779;28;20483;-90
2022/01/07 09:24:22;;;;;;;0.73;0.73;;;1.40;99.90;;;;;;5034921;28;20211;-91
2022/01/07 09:26:48;;;;;;;0.70;0.70;;;1.40;99.90;;;;;;5040370;28;20942;-90
2022/01/07 09:29:14;;;;;;;1.93;1.83;;;1.40;99.90;;;;;;5037093;28;20234;-91
2022/01/07 09:31:55;;;;;;;;;;;;;;;;;;;;;
2022/01/07 09:34:28;;;;;;;0.70;0.70;;;1.40;99.90;;;;;;5030265;28;20183;-91
2022/01/07 09:36:54;;;;;;;0.80;0.80;;;1.50;99.90;;;;;;5033555;28;20449;-90
2022/01/07 09:39:20;;;;;;;1.63;1.53;;;1.50;99.90;;;;;;5033304;28;20743;-91
2022/01/07 09:41:49;;;;;;;0.80;0.80;;;1.50;99.90;;;;;;5034341;28;20519;-91
2022/01/07 09:44:17;;;;;;;1.53;1.47;;;1.50;99.90;;;;;;5031932;28;20496;-91
2022/01/07 09:46:48;;;;;;;1.93;1.83;;;1.40;99.90;;;;;;5045872;28;20555;-91
2022/01/07 09:49:22;;;;;;;0.73;0.73;;;1.40;99.90;;;;;;5038170;28;20465;-91
2022/01/07 09:51:58;;;;;;;0.80;0.80;;;1.40;99.90;;;;;;5034905;28;20430;-91
2022/01/07 09:54:28;;;;;;;1.50;1.40;;;1.40;99.90;;;;;;5029886;28;20449;-90
2022/01/07 09:57:13;;;;;;;1.30;1.23;;;1.40;99.90;;;;;;5042577;28;20471;-90
2022/01/07 09:59:56;;;;;;;0.70;0.70;;;1.50;99.90;;;;;;5035656;28;20486;-91
2022/01/07 10:02:26;;;;;;;0.80;0.80;;;1.40;99.90;;;;;;5037584;28;20430;-90
2022/01/07 10:04:54;;;;;;;2.97;1.57;;;1.50;99.90;;;;;;5034069;28;20497;-91
2022/01/07 10:07:29;;;;;;;0.77;0.77;;;1.40;99.90;;;;;;5046571;28;20522;-84
2022/01/07 10:10:14;;;;;;;0.90;0.90;;;1.40;99.90;;;;;;5035675;28;20478;-85
2022/01/07 10:13:07;;;;;;;0.70;0.70;;;1.40;99.90;;;;;;5034981;28;20433;-85
2022/01/07 10:15:42;;;;;;;0.70;0.70;;;1.50;99.90;;;;;;5036562;28;20456;-85
2022/01/07 10:18:16;;;;;;;0.70;0.70;;;1.40;99.90;;;;;;5029585;28;20537;-85
2022/01/07 10:21:11;;;;;;;1.23;1.13;;;1.50;99.90;;;;;;5047541;28;20526;-85
2022/01/07 10:23:46;;;;;;;0.80;0.80;;;1.40;99.90;;;;;;5035460;28;20430;-85
2022/01/07 10:26:22;;;;;;;0.70;0.70;;;1.40;99.90;;;;;;5036621;28;20521;-84
2022/01/07 10:28:51;;;;;;;7.83;2.83;;;1.50;99.90;;;;;;5032492;28;20538;-85
2022/01/07 10:31:22;;;;;;;0.70;0.70;;;1.40;99.90;;;;;;5028235;28;20463;-85
2022/01/07 10:33:49;;;;;;;0.70;0.70;;;1.40;99.90;;;;;;5023909;28;20532;-85
2022/01/07 10:36:18;;;;;;;1.80;1.70;;;1.40;99.90;;;;;;5028375;28;20474;-85
2022/01/07 10:38:51;;;;;;;0.80;0.80;;;1.40;99.90;;;;;;5027813;28;20472;-84
2022/01/07 10:41:22;;;;;;;1.13;1.13;;;1.40;99.90;;;;;;5026065;28;20537;-84
2022/01/07 10:43:52;;;;;;;0.70;0.70;;;1.40;99.90;;;;;;5025000;28;20972;-84
2022/01/07 10:46:23;;;;;;;0.80;0.80;;;1.40;99.90;;;;;;5027719;28;20869;-84
2022/01/07 10:49:08;;;;;;;1.00;0.90;;;1.40;99.90;;;;;;5028547;28;20432;-89
2022/01/07 10:51:41;;;;;;;0.70;0.70;;;1.40;99.90;;;;;;5021970;28;20839;-88
2022/01/07 10:54:11;;;;;;;1.27;1.20;;;1.40;99.90;;;;;;5028706;28;20794;-88
2022/01/07 10:57:20;;;;;;;1.43;1.33;;;1.40;99.90;;;;;;5028352;28;20460;-87
2022/01/07 11:00:06;;;;;;;1.20;1.20;;;1.40;99.90;;;;;;5028217;28;20465;-87
2022/01/07 11:02:33;;;;;;;1.00;1.00;;;1.50;99.90;;;;;;5029204;28;20492;-87
2022/01/07 11:04:59;;;;;;;0.70;0.70;;;1.50;99.90;;;;;;5029615;28;20595;-88
2022/01/07 11:07:25;;;;;;;1.27;1.13;;;1.50;99.90;;;;;;5027716;28;20957;-88
2022/01/07 11:09:51;;;;;;;1.10;1.07;;;1.50;99.90;;;;;;5027967;28;20242;-88
2022/01/07 11:12:18;;;;;;;0.90;0.90;;;1.50;99.90;;;;;;5027108;28;20258;-87
2022/01/07 11:14:43;;;;;;;0.80;0.80;;;1.60;99.90;;;;;;5024584;28;20473;-88
2022/01/07 11:17:21;;;;;;;1.17;1.07;;;1.60;99.90;;;;;;5028062;28;21136;-87
2022/01/07 11:19:57;;;;;;;2.47;2.27;;;1.50;99.90;;;;;;5020621;28;20215;-87
2022/01/07 11:22:55;;;;;;;;;;;;;;;;;;;;;
2022/01/07 11:25:11;;;;;;;0.90;0.90;;;1.60;99.90;;;;;;5021093;28;20802;-88
2022/01/07 11:28:24;;;;;;;0.70;0.70;;;1.60;99.90;;;;;;5025328;28;20475;-89
2022/01/07 11:30:50;;;;;;;0.73;0.73;;;1.70;99.90;;;;;;5011875;28;20509;-87
2022/01/07 11:33:22;;;;;;;0.70;0.70;;;1.70;99.90;;;;;;5010458;28;20888;-88
2022/01/07 11:35:51;;;;;;;0.80;0.80;;;1.70;99.90;;;;;;5007899;28;20185;-87
2022/01/07 11:38:32;;;;;;;0.63;0.60;;;1.70;99.90;;;;;;5004253;28;20440;-87
2022/01/07 11:40:58;;;;;;;1.10;1.10;;;1.80;99.90;;;;;;5009659;28;20481;-87
2022/01/07 11:43:31;;;;;;;0.70;0.70;;;1.80;99.90;;;;;;5007462;28;20548;-87
2022/01/07 11:46:20;;;;;;;1.00;0.90;;;1.80;99.90;;;;;;5008069;28;20801;-87
2022/01/07 11:48:49;;;;;;;1.73;1.00;;;1.80;99.90;;;;;;5010373;28;20518;-87
2022/01/07 11:51:18;;;;;;;0.70;0.70;;;1.80;99.90;;;;;;5006583;28;20447;-87
2022/01/07 11:53:50;;;;;;;1.37;1.27;;;1.80;99.90;;;;;;5023549;28;20459;-87
2022/01/07 11:56:19;;;;;;;2.10;2.00;;;1.90;99.90;;;;;;5012174;28;20439;-87
2022/01/07 11:58:52;;;;;;;0.70;0.70;;;1.90;99.90;;;;;;5029699;28;20445;-89
2022/01/07 12:01:32;;;;;;;2.60;2.40;;;;;;;;;;5014266;28;20514;-88
2022/01/07 12:04:03;;;;;;;1.43;1.30;;;;;;;;;;5028698;28;20709;-89
2022/01/07 12:06:30;;;;;;;0.70;0.70;;;;;;;;;;5028756;28;20845;-88
2022/01/07 12:08:59;;;;;;;0.70;0.70;;;;;;;;;;5013760;28;20627;-89
2022/01/07 12:11:26;;;;;;;0.60;0.60;;;;;;;;;;5018875;28;20474;-89
2022/01/07 12:13:58;;;;;;;0.77;0.77;;;;;;;;;;5032274;28;20442;-89
2022/01/07 12:16:25;;;;;;;0.70;0.70;;;;;;;;;;5040393;28;20473;-89
2022/01/07 12:18:51;;;;;;;1.10;1.10;;;;;;;;;;5027857;28;20470;-88
2022/01/07 12:21:18;;;;;;;0.70;0.70;;;;;;;;;;5027741;28;20437;-87
2022/01/07 12:23:45;;;;;;;0.80;0.80;;;;;;;;;;5024611;28;20469;-89
2022/01/07 12:26:11;;;;;;;0.70;0.70;;;2.00;99.90;;;;;;5026828;28;20470;-89
2022/01/07 12:28:42;;;;;;;1.43;1.43;;;2.30;99.90;;;;;;5038793;28;20435;-88
2022/01/07 12:31:10;;;;;;;1.07;1.07;;;2.20;99.90;;;;;;5036640;28;20679;-88
2022/01/07 12:33:48;;;;;;;0.70;0.70;;;2.20;99.90;;;;;;5033402;28;20426;-90
2022/01/07 12:36:23;;;;;;;3.37;2.70;;;2.20;99.90;;;;;;5030525;28;20821;-88
2022/01/07 12:39:20;;;;;;;1.00;1.00;;;2.30;99.90;;;;;;5047484;28;20524;-89
2022/01/07 12:41:52;;;;;;;1.10;1.10;;;2.30;99.90;;;;;;5027774;28;20518;-88
2022/01/07 12:44:18;;;;;;;0.70;0.70;;;2.30;99.90;;;;;;5037156;28;20632;-88
2022/01/07 12:46:52;;;;;;;1.67;1.57;;;2.30;99.90;;;;;;5030969;28;20528;-85
2022/01/07 12:49:17;;;;;;;1.33;1.23;;;2.40;99.90;;;;;;5028307;28;20293;-88
2022/01/07 12:51:43;;;;;;;3.43;2.10;;;2.40;99.90;;;;;;5036835;28;20495;-89
2022/01/07 12:54:12;;;;;;;1.43;0.80;;;2.40;99.90;;;;;;5030670;28;20187;-89
2022/01/07 12:56:39;;;;;;;3.83;1.53;;;2.50;99.90;;;;;;5033867;28;20236;-88
2022/01/07 12:59:13;;;;;;;0.60;0.60;;;2.50;99.90;;;;;;5029730;28;21011;-87
2022/01/07 13:01:42;;;;;;;0.97;0.90;;;2.50;99.90;;;;;;5028679;28;20439;-88
2022/01/07 13:04:16;;;;;;;0.70;0.70;;;2.60;99.90;;;;;;5030285;28;20438;-88
2022/01/07 13:06:57;;;;;;;0.80;0.80;;;2.60;99.90;;;;;;5039922;28;20954;-87
2022/01/07 13:09:38;;;;;;;0.90;0.90;;;2.60;99.90;;;;;;5048501;28;20470;-88
2022/01/07 13:12:17;;;;;;;0.80;0.80;;;2.80;99.90;;;;;;5038605;28;20487;-88
2022/01/07 13:14:47;;;;;;;1.57;1.47;;;2.80;99.90;;;;;;5023210;28;20445;-88
2022/01/07 13:17:28;;;;;;;6.10;2.20;;;2.70;99.90;;;;;;5024957;28;20442;-90
2022/01/07 13:19:55;;;;;;;1.00;1.00;;;2.80;99.90;;;;;;5039992;28;20478;-89
2022/01/07 13:22:29;;;;;;;0.70;0.70;;;2.80;99.90;;;;;;5026050;28;20446;-90
2022/01/07 13:24:55;;;;;;;0.70;0.70;;;2.80;99.90;;;;;;5047595;28;20503;-91
2022/01/07 13:27:23;;;;;;;1.47;1.37;;;2.80;99.90;;;;;;5028674;28;20991;-89
2022/01/07 13:29:49;;;;;;;0.80;0.80;;;2.90;99.90;;;;;;5044085;28;20616;-87
2022/01/07 13:32:23;;;;;;;0.83;0.83;;;2.90;99.90;;;;;;5029314;28;20628;-88
2022/01/07 13:35:04;;;;;;;2.30;2.20;;;2.90;99.90;;;;;;5029950;28;20458;-89
2022/01/07 13:37:30;;;;;;;2.03;1.93;;;2.90;99.90;;;;;;5041805;28;20515;-90
2022/01/07 13:39:55;;;;;;;1.10;1.10;;;2.90;99.90;;;;;;5031535;28;20429;-90
2022/01/07 13:42:25;;;;;;;0.70;0.70;;;3.00;99.90;;;;;;5027430;28;20253;-89
2022/01/07 13:45:06;;;;;;;0.70;0.70;;;3.00;99.90;;;;;;5043393;28;20245;-90
2022/01/07 13:47:35;;;;;;;0.70;0.60;;;3.10;99.90;;;;;;5033120;28;20453;-90
2022/01/07 13:50:14;;;;;;;0.70;0.60;;;3.10;99.90;;;;;;5046513;28;20466;-91
2022/01/07 13:52:46;;;;;;;1.30;1.20;;;3.10;99.90;;;;;;5045535;28;20950;-91
2022/01/07 13:55:26;;;;;;;0.80;0.80;;;3.10;99.90;;;;;;5023114;28;20592;-91
2022/01/07 13:57:52;;;;;;;0.70;0.70;;;3.10;99.90;;;;;;5026369;28;20489;-90
2022/01/07 14:00:17;;;;;;;1.13;1.07;;;3.00;99.90;;;;;;5028478;28;20529;-90
2022/01/07 14:02:50;;;;;;;0.70;0.60;;;3.10;99.90;;;;;;5026801;28;20215;-89
2022/01/07 14:05:16;;;;;;;1.30;1.20;;;3.10;99.90;;;;;;5030107;28;20188;-89
2022/01/07 14:07:50;;;;;;;0.70;0.70;;;3.10;99.90;;;;;;5032780;28;20473;-91
2022/01/07 14:10:26;;;;;;;0.70;0.60;;;3.10;99.90;;;;;;5031155;28;20485;-89
2022/01/07 14:12:59;;;;;;;0.80;0.80;;;3.10;99.90;;;;;;5028010;28;20457;-90